Time;durP1;ratioP1;P1;durP2;ratioP2;P2;SDS_P1;SDS_P2;PMS_P1;PMS_P2;Temp;Humidity;BMP_temperature;BMP_pressure;BME280_temperature;BME280_humidity;BME280_pressure;Samples;Min_cycle;Max_cycle;Signal;HPM_P1;HPM_P2
2021/06/19 00:02:04;;;;;;;2.53;0.68;;;15.00;59.40;;;;;;5000756;28;20465;-63
2021/06/19 00:04:31;;;;;;;2.92;0.88;;;15.00;59.60;;;;;;4987851;28;20033;-63
2021/06/19 00:06:59;;;;;;;5.85;1.02;;;15.10;59.40;;;;;;5002693;28;20088;-69
2021/06/19 00:09:26;;;;;;;2.67;0.98;;;15.20;60.20;;;;;;5002795;28;20523;-62
2021/06/19 00:11:53;;;;;;;2.97;0.95;;;15.30;59.60;;;;;;5002847;28;20113;-67
2021/06/19 00:14:21;;;;;;;3.47;1.20;;;15.30;59.40;;;;;;5004597;28;20104;-63
2021/06/19 00:16:48;;;;;;;0.50;0.30;;;15.30;59.50;;;;;;4984433;28;20125;-66
2021/06/19 00:19:15;;;;;;;6.88;0.90;;;15.40;59.30;;;;;;5003772;28;20072;-66
2021/06/19 00:21:42;;;;;;;3.75;0.82;;;15.50;59.20;;;;;;4982516;28;20084;-72
2021/06/19 00:24:11;;;;;;;1.65;0.80;;;15.50;59.00;;;;;;5000461;28;20030;-70
2021/06/19 00:26:39;;;;;;;2.90;0.75;;;15.60;59.80;;;;;;5002704;28;20057;-71
2021/06/19 00:29:06;;;;;;;5.38;2.53;;;15.50;59.10;;;;;;5001832;28;20062;-69
2021/06/19 00:31:33;;;;;;;2.75;0.63;;;15.50;59.50;;;;;;5002905;28;20178;-64
2021/06/19 00:34:00;;;;;;;5.05;0.85;;;15.50;59.70;;;;;;5001023;28;20034;-68
2021/06/19 00:36:27;;;;;;;3.90;0.80;;;15.50;60.10;;;;;;4988498;28;20034;-67
2021/06/19 00:38:54;;;;;;;1.17;0.63;;;15.50;59.70;;;;;;5003490;28;20034;-66
2021/06/19 00:41:21;;;;;;;3.47;1.15;;;15.50;59.60;;;;;;5003520;28;20465;-69
2021/06/19 00:43:48;;;;;;;3.58;1.00;;;15.40;59.70;;;;;;5001121;28;20026;-65
2021/06/19 00:46:15;;;;;;;5.68;0.88;;;15.40;60.10;;;;;;4987024;28;20076;-66
2021/06/19 00:48:42;;;;;;;0.77;0.47;;;15.40;60.70;;;;;;5004414;28;20777;-67
2021/06/19 00:51:09;;;;;;;4.88;1.48;;;15.50;59.60;;;;;;5023651;28;20112;-67
2021/06/19 00:53:36;;;;;;;5.68;0.80;;;15.40;60.20;;;;;;5023467;28;20025;-67
2021/06/19 00:56:04;;;;;;;1.83;0.70;;;15.40;60.30;;;;;;5023922;28;20025;-65
2021/06/19 00:58:33;;;;;;;4.75;0.68;;;15.30;60.40;;;;;;5021637;28;20026;-70
2021/06/19 01:01:00;;;;;;;5.13;0.60;;;15.30;60.70;;;;;;5026874;28;20056;-73
2021/06/19 01:03:27;;;;;;;4.57;0.98;;;15.30;61.10;;;;;;5022198;28;20044;-69
2021/06/19 01:05:54;;;;;;;2.35;0.40;;;15.40;60.60;;;;;;5024824;28;20372;-68
2021/06/19 01:08:21;;;;;;;2.85;0.60;;;15.50;61.10;;;;;;5026272;28;20058;-72
2021/06/19 01:10:48;;;;;;;3.45;0.85;;;15.50;60.70;;;;;;5027326;28;20551;-71
2021/06/19 01:13:15;;;;;;;2.13;0.80;;;15.60;60.60;;;;;;5023414;28;20108;-63
2021/06/19 01:15:42;;;;;;;1.95;0.70;;;15.60;61.70;;;;;;5020673;28;20021;-65
2021/06/19 01:18:09;;;;;;;2.15;0.50;;;15.50;61.10;;;;;;5019361;28;20064;-73
2021/06/19 01:20:37;;;;;;;1.98;0.52;;;15.50;62.00;;;;;;5021258;28;20381;-72
2021/06/19 01:23:04;;;;;;;1.60;0.70;;;15.60;61.90;;;;;;5005980;28;20128;-73
2021/06/19 01:25:34;;;;;;;3.15;0.88;;;15.60;61.90;;;;;;5017450;28;20050;-75
2021/06/19 01:28:02;;;;;;;1.90;0.70;;;15.60;61.10;;;;;;5023083;28;20108;-71
2021/06/19 01:30:29;;;;;;;6.13;0.80;;;15.50;61.40;;;;;;5027196;28;20029;-64
2021/06/19 01:32:57;;;;;;;3.00;1.17;;;15.50;61.20;;;;;;5025515;28;20563;-73
2021/06/19 01:35:25;;;;;;;5.13;0.80;;;15.40;62.40;;;;;;5020535;28;20018;-68
2021/06/19 01:37:55;;;;;;;6.00;0.88;;;15.40;63.70;;;;;;5023907;28;20032;-68
2021/06/19 01:40:26;;;;;;;0.68;0.40;;;15.30;64.50;;;;;;5026419;28;20021;-70
2021/06/19 01:42:54;;;;;;;2.60;0.88;;;15.30;64.20;;;;;;5026085;28;20064;-71
2021/06/19 01:45:25;;;;;;;4.05;1.13;;;15.40;63.90;;;;;;5023498;28;20017;-72
2021/06/19 01:47:53;;;;;;;1.42;0.88;;;15.30;64.50;;;;;;5022060;28;20037;-69
2021/06/19 01:50:22;;;;;;;4.60;1.30;;;15.30;65.80;;;;;;5025003;28;20439;-71
2021/06/19 01:52:51;;;;;;;2.90;0.65;;;15.10;69.20;;;;;;5027764;28;20080;-71
2021/06/19 01:55:19;;;;;;;3.20;0.82;;;15.00;70.90;;;;;;5021159;28;20057;-68
2021/06/19 01:57:49;;;;;;;4.03;0.88;;;14.80;70.30;;;;;;5019089;28;20032;-70
2021/06/19 02:00:22;;;;;;;3.30;0.75;;;14.70;71.70;;;;;;5025149;28;20025;-66
2021/06/19 02:02:49;;;;;;;1.33;0.75;;;14.70;71.30;;;;;;5023546;28;20123;-64
2021/06/19 02:05:17;;;;;;;1.73;0.77;;;14.70;72.00;;;;;;5016478;28;20499;-69
2021/06/19 02:07:55;;;;;;;2.22;0.80;;;14.60;71.70;;;;;;5023442;28;20029;-69
2021/06/19 02:10:25;;;;;;;2.13;0.50;;;14.60;73.80;;;;;;5018908;28;20108;-68
2021/06/19 02:12:53;;;;;;;1.65;0.40;;;14.60;74.20;;;;;;5026419;28;20360;-68
2021/06/19 02:15:20;;;;;;;1.20;0.43;;;14.60;74.10;;;;;;5017355;28;20365;-68
2021/06/19 02:17:48;;;;;;;2.08;0.80;;;14.70;72.60;;;;;;5022085;28;20083;-72
2021/06/19 02:20:17;;;;;;;2.92;0.60;;;14.80;72.30;;;;;;5021167;28;20091;-67
2021/06/19 02:22:44;;;;;;;2.13;0.70;;;14.90;72.30;;;;;;4666280;28;10000207;-68
2021/06/19 02:25:14;;;;;;;3.45;0.82;;;15.00;71.50;;;;;;5023046;28;21032;-68
2021/06/19 02:28:01;;;;;;;0.47;0.40;;;15.10;71.00;;;;;;5016661;28;20045;-65
2021/06/19 02:30:31;;;;;;;1.10;0.47;;;15.20;70.80;;;;;;5017166;28;20025;-66
2021/06/19 02:32:59;;;;;;;2.83;0.60;;;15.40;69.60;;;;;;5018626;28;20121;-68
2021/06/19 02:35:29;;;;;;;0.50;0.38;;;15.50;68.80;;;;;;5023411;28;20021;-65
2021/06/19 02:37:58;;;;;;;3.78;0.90;;;15.50;69.90;;;;;;5014658;28;20036;-69
2021/06/19 02:40:25;;;;;;;0.93;0.68;;;15.70;70.10;;;;;;5020977;28;20074;-69
2021/06/19 02:42:53;;;;;;;2.85;0.88;;;15.70;70.00;;;;;;5000979;28;20152;-67
2021/06/19 02:45:21;;;;;;;2.55;0.75;;;15.50;69.70;;;;;;5020014;28;20033;-73
2021/06/19 02:47:52;;;;;;;2.20;0.90;;;15.40;69.60;;;;;;5018799;28;20247;-66
2021/06/19 02:50:23;;;;;;;1.30;0.50;;;15.30;71.50;;;;;;5017189;28;20100;-66
2021/06/19 02:52:50;;;;;;;2.38;0.80;;;15.20;73.00;;;;;;5016953;28;20033;-66
2021/06/19 02:55:22;;;;;;;2.00;0.77;;;15.20;71.00;;;;;;5011757;28;20504;-70
2021/06/19 02:57:49;;;;;;;1.25;0.50;;;15.10;72.00;;;;;;5019604;28;20129;-68
2021/06/19 03:00:18;;;;;;;1.17;0.32;;;15.30;73.70;;;;;;5020538;28;20123;-69
2021/06/19 03:02:46;;;;;;;1.58;0.60;;;15.40;71.80;;;;;;5020240;28;20036;-63
2021/06/19 03:05:16;;;;;;;1.92;0.93;;;15.40;70.00;;;;;;5019440;28;20034;-69
2021/06/19 03:07:43;;;;;;;0.52;0.32;;;15.40;70.90;;;;;;5011553;28;20026;-66
2021/06/19 03:10:14;;;;;;;1.48;0.63;;;15.50;71.00;;;;;;5018302;28;20025;-66
2021/06/19 03:12:41;;;;;;;1.10;0.50;;;15.50;70.50;;;;;;5017842;28;20033;-64
2021/06/19 03:15:09;;;;;;;3.50;0.60;;;15.60;69.10;;;;;;5024988;28;20128;-75
2021/06/19 03:17:37;;;;;;;1.80;0.50;;;15.50;69.10;;;;;;5022527;28;20029;-70
2021/06/19 03:20:06;;;;;;;2.22;0.77;;;15.50;68.90;;;;;;5005349;28;20065;-63
2021/06/19 03:22:47;;;;;;;2.25;0.52;;;15.50;69.20;;;;;;5020774;28;20411;-70
2021/06/19 03:25:19;;;;;;;3.67;0.70;;;15.50;69.30;;;;;;5024044;28;20017;-70
2021/06/19 03:27:47;;;;;;;4.03;0.55;;;15.50;69.30;;;;;;5016535;28;20485;-69
2021/06/19 03:30:16;;;;;;;2.20;0.73;;;15.60;69.70;;;;;;5010311;28;20500;-66
2021/06/19 03:32:43;;;;;;;1.90;0.63;;;15.60;69.70;;;;;;4997782;28;20459;-66
2021/06/19 03:35:10;;;;;;;2.38;0.75;;;15.60;69.50;;;;;;5029007;28;20414;-68
2021/06/19 03:37:38;;;;;;;3.03;0.60;;;15.60;69.20;;;;;;5025851;28;20029;-67
2021/06/19 03:40:10;;;;;;;1.80;1.15;;;15.60;69.50;;;;;;5008383;28;20348;-69
2021/06/19 03:42:38;;;;;;;0.85;0.40;;;15.70;69.90;;;;;;5024289;28;20071;-69
2021/06/19 03:45:06;;;;;;;5.13;1.02;;;15.80;69.50;;;;;;5011729;28;20551;-64
2021/06/19 03:47:33;;;;;;;0.80;0.47;;;15.80;69.80;;;;;;5007992;28;20034;-63
2021/06/19 03:50:00;;;;;;;2.38;0.47;;;15.90;69.30;;;;;;5026021;28;20052;-67
2021/06/19 03:52:27;;;;;;;1.95;0.55;;;15.90;69.10;;;;;;5021653;28;20034;-65
2021/06/19 03:54:54;;;;;;;1.23;0.40;;;15.90;70.10;;;;;;5027112;28;21422;-67
2021/06/19 03:57:32;;;;;;;1.17;0.40;;;16.00;70.00;;;;;;5025616;28;20049;-68
2021/06/19 03:59:59;;;;;;;1.60;0.40;;;16.00;68.90;;;;;;5024779;28;20038;-67
2021/06/19 04:02:27;;;;;;;1.92;0.60;;;15.90;69.20;;;;;;5022111;28;20029;-68
2021/06/19 04:04:54;;;;;;;1.02;0.32;;;15.90;69.40;;;;;;5025608;28;20024;-67
2021/06/19 04:07:21;;;;;;;2.75;0.45;;;15.90;69.50;;;;;;5027505;28;20336;-66
2021/06/19 04:09:49;;;;;;;1.52;0.32;;;15.90;69.50;;;;;;5025646;28;20395;-69
2021/06/19 04:12:17;;;;;;;2.15;0.35;;;15.80;69.20;;;;;;5023023;28;20488;-69
2021/06/19 04:14:45;;;;;;;2.42;0.50;;;15.90;69.80;;;;;;5026088;28;20033;-67
2021/06/19 04:17:12;;;;;;;1.75;0.70;;;15.90;69.30;;;;;;5028509;28;20070;-70
2021/06/19 04:19:40;;;;;;;1.00;0.40;;;15.90;69.50;;;;;;5026680;28;20341;-68
2021/06/19 04:22:08;;;;;;;0.95;0.30;;;16.00;69.70;;;;;;5024888;28;20112;-67
2021/06/19 04:24:36;;;;;;;1.65;0.40;;;16.10;69.50;;;;;;5025734;28;20022;-66
2021/06/19 04:27:04;;;;;;;1.15;0.30;;;16.10;69.30;;;;;;5026046;28;20586;-67
2021/06/19 04:29:33;;;;;;;0.65;0.30;;;16.10;69.30;;;;;;5021933;28;20400;-67
2021/06/19 04:32:01;;;;;;;0.47;0.30;;;16.10;70.20;;;;;;5019437;28;20048;-66
2021/06/19 04:34:28;;;;;;;1.05;0.32;;;16.10;69.70;;;;;;5025973;28;20107;-67
2021/06/19 04:36:56;;;;;;;1.63;0.40;;;16.00;69.60;;;;;;5026750;28;20064;-67
2021/06/19 04:39:23;;;;;;;2.47;0.40;;;16.00;69.70;;;;;;5019696;28;20127;-66
2021/06/19 04:42:03;;;;;;;0.63;0.30;;;16.00;70.60;;;;;;5022644;28;20028;-68
2021/06/19 04:47:15;;;;;;;2.35;0.50;;;16.10;70.00;;;;;;5019734;28;20134;-67
2021/06/19 04:49:42;;;;;;;0.70;0.50;;;16.10;70.50;;;;;;5020880;28;20061;-66
2021/06/19 04:52:09;;;;;;;0.75;0.40;;;16.10;70.60;;;;;;5023209;28;20044;-69
2021/06/19 04:54:39;;;;;;;0.95;0.40;;;16.20;70.40;;;;;;5008522;28;20632;-68
2021/06/19 04:57:07;;;;;;;1.25;0.47;;;16.10;69.50;;;;;;5026464;28;20061;-67
2021/06/19 04:59:35;;;;;;;3.85;0.70;;;16.10;70.60;;;;;;5027625;28;20695;-67
2021/06/19 05:02:03;;;;;;;0.63;0.40;;;16.10;70.90;;;;;;5025006;28;20108;-68
2021/06/19 05:04:29;;;;;;;3.97;0.40;;;16.10;70.20;;;;;;5026160;28;20030;-70
2021/06/19 05:06:56;;;;;;;1.13;0.52;;;16.00;70.90;;;;;;5009467;28;20109;-69
2021/06/19 05:09:23;;;;;;;1.10;0.40;;;15.90;70.90;;;;;;5024139;28;20100;-66
2021/06/19 05:11:50;;;;;;;2.63;0.50;;;15.80;71.60;;;;;;5002640;28;20026;-68
2021/06/19 05:14:17;;;;;;;0.95;0.38;;;15.80;71.30;;;;;;5023179;28;20053;-67
2021/06/19 05:16:45;;;;;;;0.85;0.40;;;15.80;71.80;;;;;;5015919;28;20057;-68
2021/06/19 05:19:12;;;;;;;0.77;0.40;;;15.90;71.30;;;;;;5001544;28;20021;-68
2021/06/19 05:21:40;;;;;;;0.65;0.30;;;16.00;71.80;;;;;;5022734;28;20437;-71
2021/06/19 05:24:08;;;;;;;2.75;0.40;;;16.00;69.40;;;;;;5023698;28;20021;-67
2021/06/19 05:26:36;;;;;;;1.60;0.30;;;16.00;69.10;;;;;;5025248;28;20029;-67
2021/06/19 05:29:02;;;;;;;0.20;0.20;;;16.00;69.50;;;;;;5023476;28;20037;-71
2021/06/19 05:31:29;;;;;;;0.57;0.35;;;16.10;68.90;;;;;;5018596;28;20025;-64
2021/06/19 05:33:56;;;;;;;2.80;0.40;;;16.10;68.80;;;;;;5022765;28;20045;-70
2021/06/19 05:36:23;;;;;;;3.15;0.40;;;16.00;68.70;;;;;;5025372;28;20040;-68
2021/06/19 05:38:51;;;;;;;0.45;0.28;;;15.90;69.30;;;;;;5021913;28;20396;-66
2021/06/19 05:41:18;;;;;;;1.17;0.30;;;15.80;69.40;;;;;;5021471;28;20033;-68
2021/06/19 05:43:45;;;;;;;2.25;0.52;;;15.70;70.10;;;;;;5024231;28;20017;-67
2021/06/19 05:46:12;;;;;;;2.47;0.30;;;15.70;70.70;;;;;;5018999;28;20013;-70
2021/06/19 05:48:39;;;;;;;2.25;0.52;;;15.50;70.50;;;;;;5025353;28;20073;-68
2021/06/19 05:51:06;;;;;;;2.90;0.30;;;15.60;70.40;;;;;;5022645;28;20083;-68
2021/06/19 05:53:33;;;;;;;3.95;0.57;;;15.50;71.00;;;;;;5020393;28;20734;-70
2021/06/19 05:56:00;;;;;;;1.88;0.95;;;15.50;71.90;;;;;;5014238;28;20088;-70
2021/06/19 05:58:27;;;;;;;0.80;0.32;;;15.40;71.00;;;;;;5020283;28;20025;-68
2021/06/19 06:00:54;;;;;;;2.53;0.50;;;15.30;71.50;;;;;;5024855;28;20103;-68
2021/06/19 06:03:20;;;;;;;1.45;0.65;;;15.30;71.70;;;;;;5016093;28;20117;-72
2021/06/19 06:05:47;;;;;;;1.60;0.40;;;15.20;71.90;;;;;;5000615;28;20036;-70
2021/06/19 06:08:14;;;;;;;0.75;0.47;;;15.20;72.50;;;;;;4334873;28;10000753;-69
2021/06/19 06:10:41;;;;;;;1.98;0.30;;;15.10;72.30;;;;;;5008216;28;20350;-71
2021/06/19 06:13:08;;;;;;;2.25;0.90;;;15.10;72.20;;;;;;5021421;28;20036;-71
2021/06/19 06:15:35;;;;;;;2.25;0.93;;;15.00;72.00;;;;;;5020189;28;20037;-69
2021/06/19 06:18:02;;;;;;;1.65;0.50;;;15.00;72.30;;;;;;5003409;28;20087;-68
2021/06/19 06:20:29;;;;;;;2.17;0.60;;;15.00;72.10;;;;;;5025542;28;20037;-67
2021/06/19 06:22:56;;;;;;;1.27;0.60;;;15.00;72.20;;;;;;5014461;28;20030;-67
2021/06/19 06:25:23;;;;;;;1.30;0.40;;;15.00;72.80;;;;;;4992940;28;20021;-69
2021/06/19 06:27:50;;;;;;;2.20;0.40;;;15.00;72.90;;;;;;5025360;28;20028;-68
2021/06/19 06:30:18;;;;;;;1.25;0.50;;;15.00;72.30;;;;;;5017939;28;20037;-70
2021/06/19 06:32:45;;;;;;;1.88;0.60;;;15.00;71.60;;;;;;5010584;28;20037;-68
2021/06/19 06:35:13;;;;;;;1.27;0.40;;;15.00;71.70;;;;;;5008725;28;20095;-67
2021/06/19 06:37:40;;;;;;;2.88;0.60;;;14.90;71.70;;;;;;5016699;28;20026;-67
2021/06/19 06:40:13;;;;;;;2.58;0.80;;;14.90;71.70;;;;;;5011586;28;20033;-67
2021/06/19 06:42:41;;;;;;;1.63;0.52;;;14.70;72.00;;;;;;5014963;28;20109;-70
2021/06/19 06:45:12;;;;;;;2.55;0.65;;;14.60;72.30;;;;;;5021034;28;20033;-67
2021/06/19 06:47:40;;;;;;;1.60;0.45;;;14.60;72.70;;;;;;5019836;28;20087;-68
2021/06/19 06:50:09;;;;;;;1.50;0.50;;;14.50;73.30;;;;;;5016700;28;20049;-69
2021/06/19 06:52:37;;;;;;;1.20;0.35;;;14.40;73.40;;;;;;5008761;28;20383;-71
2021/06/19 06:55:07;;;;;;;2.95;0.60;;;14.40;73.40;;;;;;5019342;28;20033;-67
2021/06/19 06:57:34;;;;;;;4.03;0.90;;;14.30;73.50;;;;;;5021953;28;20120;-66
2021/06/19 07:00:01;;;;;;;2.38;0.73;;;14.30;73.90;;;;;;5019299;28;20030;-66
2021/06/19 07:02:29;;;;;;;3.67;0.65;;;14.30;73.50;;;;;;5022897;28;20036;-66
2021/06/19 07:04:56;;;;;;;3.50;0.82;;;14.20;73.40;;;;;;5018482;28;20070;-66
2021/06/19 07:07:23;;;;;;;2.35;1.00;;;14.30;73.60;;;;;;4999702;28;20061;-69
2021/06/19 07:09:50;;;;;;;3.13;0.95;;;14.20;73.70;;;;;;5023768;28;20029;-68
2021/06/19 07:12:17;;;;;;;2.47;0.65;;;14.10;74.10;;;;;;5023164;28;20069;-68
2021/06/19 07:14:44;;;;;;;2.20;0.82;;;14.10;74.20;;;;;;5025163;28;20030;-69
2021/06/19 07:17:11;;;;;;;3.08;0.70;;;14.00;73.70;;;;;;5023971;28;20057;-69
2021/06/19 07:19:43;;;;;;;3.20;0.75;;;14.00;73.70;;;;;;5022638;28;20063;-70
2021/06/19 07:22:10;;;;;;;2.07;1.00;;;14.00;74.20;;;;;;5024748;28;20395;-72
2021/06/19 07:24:37;;;;;;;3.40;0.80;;;13.90;74.00;;;;;;5018199;28;20025;-67
2021/06/19 07:27:05;;;;;;;2.75;0.82;;;13.90;74.00;;;;;;5017411;28;20033;-67
2021/06/19 07:29:32;;;;;;;2.45;0.75;;;13.80;74.20;;;;;;5021942;28;20029;-67
2021/06/19 07:31:59;;;;;;;5.00;0.80;;;13.90;74.30;;;;;;5006610;28;20147;-69
2021/06/19 07:34:27;;;;;;;4.35;0.80;;;13.80;74.10;;;;;;5024987;28;20076;-65
2021/06/19 07:36:54;;;;;;;3.88;1.10;;;13.90;74.20;;;;;;5021425;28;20025;-66
2021/06/19 07:39:21;;;;;;;6.65;1.40;;;13.80;74.30;;;;;;5015775;28;20471;-69
2021/06/19 07:41:48;;;;;;;2.03;1.00;;;13.70;74.20;;;;;;4996701;28;21472;-70
2021/06/19 07:44:16;;;;;;;3.95;0.77;;;13.60;74.10;;;;;;5026189;28;20107;-69
2021/06/19 07:46:46;;;;;;;1.45;0.88;;;13.60;74.90;;;;;;5022913;28;20083;-70
2021/06/19 07:49:14;;;;;;;7.07;1.48;;;13.50;74.80;;;;;;5019723;28;20049;-70
2021/06/19 07:51:41;;;;;;;5.95;1.48;;;13.40;74.90;;;;;;5024420;28;20033;-63
2021/06/19 07:54:08;;;;;;;3.50;0.90;;;13.40;74.60;;;;;;5024997;28;20590;-65
2021/06/19 07:56:35;;;;;;;4.47;1.20;;;13.50;74.60;;;;;;5020602;28;20052;-68
2021/06/19 07:59:02;;;;;;;3.53;1.10;;;13.50;74.30;;;;;;5024547;28;20564;-69
2021/06/19 08:01:29;;;;;;;3.00;1.40;;;13.60;74.10;;;;;;5023944;28;20764;-70
2021/06/19 08:03:56;;;;;;;5.40;1.33;;;13.50;74.30;;;;;;5006658;28;20087;-69
2021/06/19 08:06:23;;;;;;;3.33;1.17;;;13.40;74.50;;;;;;5023328;28;20072;-64
2021/06/19 08:08:54;;;;;;;5.25;1.20;;;13.40;74.50;;;;;;5021555;28;20027;-64
2021/06/19 08:11:22;;;;;;;2.30;0.93;;;13.40;74.20;;;;;;5023790;28;20045;-67
2021/06/19 08:13:50;;;;;;;3.53;1.05;;;13.30;74.20;;;;;;5024432;28;20468;-69
2021/06/19 08:16:18;;;;;;;5.68;1.08;;;13.30;74.70;;;;;;5025312;28;20029;-66
2021/06/19 08:18:46;;;;;;;3.58;1.00;;;13.20;74.80;;;;;;5022437;28;20075;-69
2021/06/19 08:21:14;;;;;;;3.33;1.15;;;13.10;75.00;;;;;;5023484;28;20128;-68
2021/06/19 08:23:41;;;;;;;3.38;0.75;;;13.10;75.20;;;;;;5025354;28;20593;-67
2021/06/19 08:26:08;;;;;;;4.50;1.30;;;13.00;75.40;;;;;;5024630;28;20017;-69
2021/06/19 08:28:36;;;;;;;4.78;1.10;;;13.00;75.20;;;;;;5024087;28;20025;-65
2021/06/19 08:31:04;;;;;;;4.28;0.65;;;13.00;75.10;;;;;;5015877;28;20083;-69
2021/06/19 08:33:34;;;;;;;2.88;0.90;;;13.00;75.00;;;;;;5022618;28;20506;-67
2021/06/19 08:36:01;;;;;;;4.18;0.80;;;12.90;75.40;;;;;;5025330;28;20033;-72
2021/06/19 08:38:28;;;;;;;3.97;0.80;;;12.90;75.50;;;;;;5023474;28;20136;-70
2021/06/19 08:40:55;;;;;;;3.47;1.02;;;12.90;75.30;;;;;;5003670;28;20076;-76
2021/06/19 08:43:22;;;;;;;4.20;1.00;;;13.00;74.90;;;;;;5025647;28;20040;-71
2021/06/19 08:45:51;;;;;;;5.63;1.10;;;13.10;74.30;;;;;;5024703;28;20506;-70
2021/06/19 08:48:20;;;;;;;3.42;1.10;;;13.10;74.00;;;;;;5023831;28;20049;-72
2021/06/19 08:50:48;;;;;;;4.88;1.30;;;13.20;73.60;;;;;;5007585;28;20056;-71
2021/06/19 08:53:18;;;;;;;2.85;1.05;;;13.10;73.20;;;;;;5007403;28;20029;-70
2021/06/19 08:55:46;;;;;;;4.97;1.10;;;13.10;73.80;;;;;;5006728;28;20400;-70
2021/06/19 08:58:13;;;;;;;1.73;0.82;;;13.00;73.80;;;;;;5013166;28;20865;-72
2021/06/19 09:00:40;;;;;;;6.32;1.45;;;13.00;74.10;;;;;;5004726;28;20021;-73
2021/06/19 09:03:22;;;;;;;3.92;1.17;;;12.90;74.20;;;;;;4988488;28;20399;-71
2021/06/19 09:05:51;;;;;;;6.88;0.90;;;12.90;73.40;;;;;;4989409;28;20084;-70
2021/06/19 09:08:19;;;;;;;3.35;1.10;;;13.00;73.00;;;;;;5005821;28;20042;-70
2021/06/19 09:10:46;;;;;;;7.15;1.67;;;13.00;72.80;;;;;;5008463;28;20084;-73
2021/06/19 09:13:21;;;;;;;3.97;1.40;;;13.00;72.70;;;;;;5006759;28;20040;-70
2021/06/19 09:15:55;;;;;;;4.72;1.58;;;13.00;73.10;;;;;;5005602;28;20041;-69
2021/06/19 09:18:23;;;;;;;6.38;2.85;;;12.90;73.80;;;;;;5004758;28;20025;-68
2021/06/19 09:20:55;;;;;;;5.72;1.80;;;12.90;74.00;;;;;;5004481;28;20018;-69
2021/06/19 09:23:34;;;;;;;4.22;1.20;;;12.90;74.10;;;;;;5004600;28;20024;-68
2021/06/19 09:26:23;;;;;;;5.07;1.67;;;12.90;73.30;;;;;;5005616;28;20018;-70
2021/06/19 09:29:16;;;;;;;6.95;1.05;;;12.90;73.50;;;;;;5004616;28;20037;-71
2021/06/19 09:31:54;;;;;;;4.35;1.20;;;12.90;73.70;;;;;;5000408;28;20105;-68
2021/06/19 09:34:21;;;;;;;3.15;1.40;;;13.00;73.20;;;;;;4985828;28;20152;-67
2021/06/19 09:36:51;;;;;;;3.25;1.77;;;13.00;73.20;;;;;;5003325;28;20090;-68
2021/06/19 09:39:21;;;;;;;4.07;1.23;;;13.00;73.20;;;;;;5001692;28;20425;-67
2021/06/19 09:42:03;;;;;;;4.00;1.15;;;13.10;72.50;;;;;;5004370;28;20018;-71
2021/06/19 09:44:48;;;;;;;3.78;1.45;;;13.10;72.50;;;;;;5003820;28;20030;-71
2021/06/19 09:47:18;;;;;;;6.18;1.90;;;13.00;72.50;;;;;;5004017;28;20022;-68
2021/06/19 09:49:50;;;;;;;3.78;1.33;;;13.00;72.80;;;;;;5015436;28;20076;-67
2021/06/19 09:52:29;;;;;;;4.32;1.00;;;12.90;72.80;;;;;;5026596;28;20112;-68
2021/06/19 09:55:00;;;;;;;9.35;1.27;;;12.80;72.60;;;;;;5022311;28;20124;-69
2021/06/19 09:57:47;;;;;;;2.65;1.25;;;12.80;73.40;;;;;;5013866;28;20513;-67
2021/06/19 10:00:21;;;;;;;3.13;0.90;;;12.70;72.50;;;;;;5016638;28;20048;-69
2021/06/19 10:02:49;;;;;;;3.50;1.30;;;12.80;72.60;;;;;;5022265;28;20057;-70
2021/06/19 10:05:16;;;;;;;4.70;0.95;;;12.60;72.70;;;;;;5022688;28;20026;-69
2021/06/19 10:07:44;;;;;;;6.85;1.23;;;12.60;72.50;;;;;;5023235;28;20070;-68
2021/06/19 10:10:13;;;;;;;2.45;1.00;;;12.50;72.80;;;;;;5022839;28;20961;-66
2021/06/19 10:12:40;;;;;;;4.95;1.27;;;12.50;72.60;;;;;;5022347;28;20039;-69
2021/06/19 10:15:10;;;;;;;4.38;0.85;;;12.50;72.90;;;;;;5022260;28;20053;-70
2021/06/19 10:17:42;;;;;;;4.25;0.80;;;12.50;72.80;;;;;;5004958;28;20022;-68
2021/06/19 10:20:15;;;;;;;1.83;0.98;;;12.60;72.20;;;;;;5015173;28;20021;-69
2021/06/19 10:22:43;;;;;;;;;;;12.50;72.70;;;;;;5023591;28;20491;-69
2021/06/19 10:25:13;;;;;;;5.65;1.60;;;12.50;72.50;;;;;;5021799;28;19944;-69
2021/06/19 10:27:48;;;;;;;2.55;1.00;;;12.50;72.80;;;;;;5024158;28;20071;-69
2021/06/19 10:30:17;;;;;;;3.15;0.98;;;12.40;72.50;;;;;;5016435;28;20087;-67
2021/06/19 10:32:47;;;;;;;4.40;1.23;;;12.40;72.70;;;;;;5021990;28;20025;-67
2021/06/19 10:35:17;;;;;;;4.07;1.33;;;12.30;72.90;;;;;;5022133;28;20028;-66
2021/06/19 10:37:48;;;;;;;4.07;0.90;;;12.30;72.80;;;;;;5022552;28;20022;-72
2021/06/19 10:40:27;;;;;;;5.47;1.42;;;12.30;72.80;;;;;;5015281;28;20029;-71
2021/06/19 10:43:17;;;;;;;2.67;1.10;;;12.30;73.00;;;;;;5014716;28;20111;-71
2021/06/19 10:45:45;;;;;;;1.65;0.80;;;12.30;73.00;;;;;;4999998;28;20026;-69
2021/06/19 10:48:15;;;;;;;3.47;1.30;;;12.30;73.00;;;;;;4688747;23;10002754;-66
2021/06/19 10:50:49;;;;;;;4.50;0.80;;;12.30;73.00;;;;;;5013517;28;20030;-66
2021/06/19 10:53:22;;;;;;;3.08;0.88;;;12.20;73.10;;;;;;5014143;28;20067;-66
2021/06/19 10:55:53;;;;;;;4.72;1.00;;;12.20;73.50;;;;;;5012371;28;20423;-67
2021/06/19 10:58:38;;;;;;;4.65;1.17;;;12.30;72.90;;;;;;5015630;28;20032;-72
2021/06/19 11:01:07;;;;;;;4.95;1.10;;;12.30;73.20;;;;;;5014110;28;20025;-71
2021/06/19 11:03:57;;;;;;;3.67;0.98;;;12.30;72.90;;;;;;4994754;28;20072;-72
2021/06/19 11:06:33;;;;;;;4.32;0.90;;;12.40;72.80;;;;;;4996295;28;20103;-67
2021/06/19 11:09:25;;;;;;;7.22;1.98;;;12.40;72.60;;;;;;5011483;28;20022;-67
2021/06/19 11:12:02;;;;;;;2.90;1.20;;;12.30;73.40;;;;;;5012445;28;20014;-67
2021/06/19 11:14:41;;;;;;;3.47;1.10;;;12.40;72.70;;;;;;5011876;28;20214;-72
2021/06/19 11:17:08;;;;;;;4.50;1.15;;;12.50;72.20;;;;;;4998668;28;20038;-72
2021/06/19 11:19:40;;;;;;;2.08;0.90;;;12.60;72.00;;;;;;5008541;28;20523;-72
2021/06/19 11:22:30;;;;;;;6.28;1.20;;;12.60;72.10;;;;;;5007840;28;20025;-66
2021/06/19 11:25:39;;;;;;;2.15;0.90;;;12.60;72.60;;;;;;5007738;28;20030;-66
2021/06/19 11:28:19;;;;;;;5.43;0.93;;;12.60;72.20;;;;;;5011048;28;20488;-72
2021/06/19 11:31:17;;;;;;;5.32;0.98;;;12.60;72.70;;;;;;5009953;28;20492;-66
2021/06/19 11:33:47;;;;;;;5.40;0.98;;;12.70;71.80;;;;;;5008910;28;20059;-72
2021/06/19 11:36:14;;;;;;;6.55;0.90;;;12.70;71.80;;;;;;5008138;28;20080;-66
2021/06/19 11:38:45;;;;;;;3.50;0.95;;;12.70;72.10;;;;;;5006374;28;20026;-65
2021/06/19 11:41:20;;;;;;;2.22;0.63;;;12.80;71.20;;;;;;5011858;28;20547;-72
2021/06/19 11:43:49;;;;;;;6.07;1.15;;;12.90;71.60;;;;;;5011325;28;20084;-70
2021/06/19 11:46:20;;;;;;;3.35;1.00;;;12.90;71.50;;;;;;5010891;28;20021;-67
2021/06/19 11:48:52;;;;;;;3.03;1.00;;;12.90;71.50;;;;;;5010554;28;20049;-71
2021/06/19 11:51:21;;;;;;;2.80;0.90;;;12.90;71.60;;;;;;5007242;28;20049;-71
2021/06/19 11:53:48;;;;;;;3.78;1.00;;;12.80;71.60;;;;;;5013366;28;20037;-70
2021/06/19 11:56:27;;;;;;;5.28;0.88;;;12.80;71.80;;;;;;5014856;28;20021;-72
2021/06/19 11:59:13;;;;;;;5.28;0.95;;;12.80;71.80;;;;;;5012986;28;20036;-72
2021/06/19 12:01:43;;;;;;;2.90;0.88;;;12.80;71.90;;;;;;5008634;28;20072;-71
2021/06/19 12:04:19;;;;;;;2.08;0.55;;;12.80;71.30;;;;;;5022367;28;20041;-65
2021/06/19 12:06:52;;;;;;;4.32;1.20;;;12.90;71.30;;;;;;5013656;28;20440;-66
2021/06/19 12:09:27;;;;;;;1.73;0.70;;;12.90;71.60;;;;;;5012951;28;20101;-71
2021/06/19 12:12:04;;;;;;;2.72;0.63;;;12.90;71.80;;;;;;5005730;28;20037;-65
2021/06/19 12:14:36;;;;;;;8.60;1.10;;;12.90;71.80;;;;;;5003762;28;20449;-64
2021/06/19 12:17:08;;;;;;;4.57;1.02;;;12.90;71.80;;;;;;5009139;28;20038;-70
2021/06/19 12:19:43;;;;;;;3.63;0.60;;;13.00;71.70;;;;;;5014565;28;20376;-71
2021/06/19 12:22:19;;;;;;;5.45;1.00;;;12.90;71.80;;;;;;4995180;28;20428;-69
2021/06/19 12:24:48;;;;;;;2.28;1.60;;;13.00;71.50;;;;;;5015585;28;20017;-65
2021/06/19 12:27:21;;;;;;;6.43;0.85;;;13.00;71.70;;;;;;4997747;28;20026;-65
2021/06/19 12:30:15;;;;;;;3.42;1.00;;;13.00;71.80;;;;;;5022606;28;20028;-65
2021/06/19 12:32:44;;;;;;;3.67;0.82;;;13.00;72.10;;;;;;5017958;28;20033;-64
2021/06/19 12:35:13;;;;;;;2.92;0.93;;;13.00;71.80;;;;;;5019539;28;20038;-69
2021/06/19 12:37:52;;;;;;;2.00;0.93;;;13.00;72.10;;;;;;4997127;28;20036;-70
2021/06/19 12:40:24;;;;;;;1.73;0.88;;;13.00;72.50;;;;;;5014003;28;20022;-65
2021/06/19 12:42:54;;;;;;;3.00;0.60;;;13.00;71.30;;;;;;5010916;28;20393;-64
2021/06/19 12:45:24;;;;;;;2.72;0.80;;;12.90;71.50;;;;;;4997670;28;20452;-66
2021/06/19 12:47:52;;;;;;;2.20;0.90;;;12.80;71.80;;;;;;5015129;28;20029;-69
2021/06/19 12:50:22;;;;;;;1.85;0.80;;;12.80;72.20;;;;;;5004218;28;20784;-67
2021/06/19 12:52:56;;;;;;;3.60;0.75;;;12.70;72.30;;;;;;5016445;28;20030;-67
2021/06/19 12:55:24;;;;;;;3.40;0.90;;;12.70;73.10;;;;;;5009507;28;20212;-66
2021/06/19 12:58:14;;;;;;;3.33;0.95;;;12.70;72.90;;;;;;5015209;28;20041;-69
2021/06/19 13:00:48;;;;;;;1.30;0.70;;;12.60;73.50;;;;;;5018974;28;20021;-65
2021/06/19 13:03:21;;;;;;;6.30;0.90;;;12.60;72.80;;;;;;5017091;28;20480;-65
2021/06/19 13:05:59;;;;;;;2.55;0.70;;;12.60;73.60;;;;;;5011954;28;20025;-65